Time;durP1;ratioP1;P1;durP2;ratioP2;P2;SDS_P1;SDS_P2;PMS_P1;PMS_P2;Temp;Humidity;BMP_temperature;BMP_pressure;BME280_temperature;BME280_humidity;BME280_pressure;Samples;Min_cycle;Max_cycle;Signal;HPM_P1;HPM_P2
2023/12/18 00:01:14;;;;;;;12.17;8.37;;;;;;;;;;5073628;28;20563;-85
2023/12/18 00:04:19;;;;;;;12.03;8.77;;;;;;;;;;5073861;28;20537;-85
2023/12/18 00:07:24;;;;;;;12.60;9.17;;;;;;;;;;5085366;28;20631;-86
2023/12/18 00:10:28;;;;;;;15.13;9.37;;;;;;;;;;5074108;28;20925;-86
2023/12/18 00:13:32;;;;;;;9.93;7.60;;;;;;;;;;5062042;28;20609;-86
2023/12/18 00:16:36;;;;;;;13.03;8.87;;;;;;;;;;5084614;28;20613;-86
2023/12/18 00:19:40;;;;;;;10.40;8.07;;;;;;;;;;5073902;28;20537;-86
2023/12/18 00:22:46;;;;;;;11.73;8.67;;;;;;;;;;5073347;28;20537;-86
2023/12/18 00:25:50;;;;;;;12.40;8.57;;;;;;;;;;5073241;28;21172;-86
2023/12/18 00:28:54;;;;;;;14.03;8.70;;;;;;;;;;5062364;28;20537;-85
2023/12/18 00:31:58;;;;;;;9.00;6.90;;;;;;;;;;5097245;28;20537;-86
2023/12/18 00:35:02;;;;;;;11.43;8.13;;;;;;;;;;5073263;28;20526;-85
2023/12/18 00:38:06;;;;;;;11.53;8.03;;;;;;;;;;5089211;28;20537;-86
2023/12/18 00:41:11;;;;;;;11.70;8.30;;;;;;;;;;5076724;28;20529;-86
2023/12/18 00:44:14;;;;;;;12.07;8.27;;;;;;;;;;5088583;28;20553;-86
2023/12/18 00:47:20;;;;;;;11.67;7.90;;;;;;;;;;5077216;28;20616;-87
2023/12/18 00:50:24;;;;;;;15.00;8.50;;;;;;;;;;5101175;28;21034;-85
2023/12/18 00:53:27;;;;;;;11.43;8.23;;;;;;;;;;5101405;28;20604;-86
2023/12/18 00:56:32;;;;;;;11.57;8.67;;;;;;;;;;5077687;28;20620;-86
2023/12/18 00:59:36;;;;;;;12.50;8.10;;;;;;;;;;5088792;28;20537;-86
2023/12/18 01:02:40;;;;;;;11.23;7.40;;;;;;;;;;5089143;28;20537;-86
2023/12/18 01:05:44;;;;;;;13.47;8.10;;;;;;;;;;5088417;28;20643;-85
2023/12/18 01:08:48;;;;;;;11.07;7.53;;;;;;;;;;5088672;28;20554;-86
2023/12/18 01:11:53;;;;;;;10.73;7.83;;;;;;;;;;5090385;28;20541;-81
2023/12/18 01:14:57;;;;;;;11.63;8.17;;;;;;;;;;5077980;28;20609;-83
2023/12/18 01:18:01;;;;;;;10.97;6.87;;;;;;;;;;5090257;28;20880;-82
2023/12/18 01:21:15;;;;;;;11.83;7.87;;;;;;;;;;5102069;28;20534;-82
2023/12/18 01:24:19;;;;;;;12.17;8.40;;;;;;;;;;5089174;28;20550;-82
2023/12/18 01:27:23;;;;;;;10.43;8.27;;;;;;;;;;5089506;28;20605;-82
2023/12/18 01:30:28;;;;;;;10.57;7.80;;;;;;;;;;5089925;28;20565;-82
2023/12/18 01:33:32;;;;;;;10.17;7.60;;;;;;;;;;5089258;28;20597;-83
2023/12/18 01:36:36;;;;;;;13.80;7.80;;;;;;;;;;5077882;28;20994;-82
2023/12/18 01:39:41;;;;;;;11.77;8.07;;;;;;;;;;5089495;28;20546;-83
2023/12/18 01:42:45;;;;;;;10.67;7.87;;;;;;;;;;5077836;28;20545;-83
2023/12/18 01:45:58;;;;;;;10.50;7.93;;;;;;;;;;5088906;28;20617;-83
2023/12/18 01:49:02;;;;;;;10.93;7.97;;;;;;;;;;5076790;28;20526;-82
2023/12/18 01:52:06;;;;;;;10.93;7.10;;;;;;;;;;5088620;28;20537;-82
2023/12/18 01:55:13;;;;;;;12.83;7.97;;;;;;;;;;5065503;28;20597;-83
2023/12/18 01:58:18;;;;;;;11.20;7.97;;;;;;;;;;5089155;28;20538;-82
2023/12/18 02:01:23;;;;;;;11.37;7.83;;;;;;;;;;5101350;28;20541;-82
2023/12/18 02:04:27;;;;;;;11.63;7.53;;;;;;;;;;5101855;28;20538;-81
2023/12/18 02:07:33;;;;;;;15.30;8.00;;;;;;;;;;5089295;28;20525;-82
2023/12/18 02:10:37;;;;;;;10.30;7.80;;;;;;;;;;5088728;28;20541;-82
2023/12/18 02:13:42;;;;;;;9.20;7.27;;;;;;;;;;5088380;28;20581;-82
2023/12/18 02:16:46;;;;;;;10.63;7.43;;;;;;;;;;5101199;28;20612;-83
2023/12/18 02:20:03;;;;;;;12.00;7.30;;;;;;;;;;5077028;28;21098;-82
2023/12/18 02:23:08;;;;;;;12.07;7.60;;;;;;;;;;5100958;28;21088;-81
2023/12/18 02:26:13;;;;;;;11.00;7.23;;;;;;;;;;5088049;28;20616;-82
2023/12/18 02:29:17;;;;;;;10.37;6.93;;;;;;;;;;5087417;28;20537;-82
2023/12/18 02:32:23;;;;;;;9.90;7.43;;;;;;;;;;5076423;28;20546;-83
2023/12/18 02:35:28;;;;;;;11.53;6.93;;;;;;;;;;5076309;28;20649;-82
2023/12/18 02:38:32;;;;;;;9.47;7.13;;;;;;;;;;5088019;28;20537;-82
2023/12/18 02:41:36;;;;;;;11.50;7.67;;;;;;;;;;5087982;28;20538;-83
2023/12/18 02:44:40;;;;;;;9.63;6.97;;;;;;;;;;5087941;28;20875;-82
2023/12/18 02:47:45;;;;;;;10.63;7.77;;;;;;;;;;5087665;28;21069;-82
2023/12/18 02:50:50;;;;;;;11.40;7.70;;;;;;;;;;5087356;28;20537;-82
2023/12/18 02:53:55;;;;;;;8.80;7.20;;;;;;;;;;5100087;28;20950;-82
2023/12/18 02:56:58;;;;;;;10.37;7.10;;;;;;;;;;5088101;28;20612;-82
2023/12/18 03:00:03;;;;;;;10.37;7.10;;;;;;;;;;5087702;28;20534;-83
2023/12/18 03:03:08;;;;;;;9.93;7.53;;;;;;;;;;5087543;28;20549;-82
2023/12/18 03:06:12;;;;;;;12.43;7.63;;;;;;;;;;5075619;28;20632;-82
2023/12/18 03:09:16;;;;;;;11.47;7.57;;;;;;;;;;5076074;28;20530;-82
2023/12/18 03:12:20;;;;;;;12.23;8.10;;;;;;;;;;5087511;28;20537;-83
2023/12/18 03:15:26;;;;;;;11.03;7.40;;;;;;;;;;5064600;28;20652;-81
2023/12/18 03:18:30;;;;;;;11.87;7.33;;;;;;;;;;5099955;28;20542;-82
2023/12/18 03:21:35;;;;;;;11.57;8.10;;;;;;;;;;5087992;28;20529;-83
2023/12/18 03:24:39;;;;;;;11.33;8.10;;;;;;;;;;5087006;28;20533;-81
2023/12/18 03:27:43;;;;;;;10.20;7.37;;;;;;;;;;5087418;28;20546;-82
2023/12/18 03:30:48;;;;;;;12.57;7.90;;;;;;;;;;5086961;28;20545;-82
2023/12/18 03:33:52;;;;;;;9.80;7.60;;;;;;;;;;5086951;28;20612;-82
2023/12/18 03:36:56;;;;;;;12.33;7.87;;;;;;;;;;5074879;28;20621;-83
2023/12/18 03:40:01;;;;;;;11.67;8.47;;;;;;;;;;5075019;28;20537;-82
2023/12/18 03:43:05;;;;;;;11.37;7.87;;;;;;;;;;5086653;28;21108;-82
2023/12/18 03:46:09;;;;;;;12.90;7.40;;;;;;;;;;5086306;28;20612;-83
2023/12/18 03:49:13;;;;;;;10.13;7.83;;;;;;;;;;5087141;28;20534;-81
2023/12/18 03:52:18;;;;;;;12.13;7.80;;;;;;;;;;5086987;28;20541;-82
2023/12/18 03:55:22;;;;;;;10.87;7.70;;;;;;;;;;5086437;28;20652;-83
2023/12/18 03:58:26;;;;;;;13.20;7.60;;;;;;;;;;5086604;28;20530;-82
2023/12/18 04:01:34;;;;;;;10.90;7.57;;;;;;;;;;5074966;28;20538;-82
2023/12/18 04:04:38;;;;;;;9.80;6.70;;;;;;;;;;5086696;28;20537;-82
2023/12/18 04:07:43;;;;;;;9.80;6.93;;;;;;;;;;5075277;28;21085;-82
2023/12/18 04:10:47;;;;;;;9.27;6.40;;;;;;;;;;5087104;28;20533;-83
2023/12/18 04:13:52;;;;;;;8.40;6.60;;;;;;;;;;5090539;28;20533;-84
2023/12/18 04:16:56;;;;;;;10.57;7.00;;;;;;;;;;5078945;28;20617;-82
2023/12/18 04:20:00;;;;;;;9.53;6.67;;;;;;;;;;5078914;28;20871;-83
2023/12/18 04:23:04;;;;;;;9.73;6.47;;;;;;;;;;5101936;28;20545;-83
2023/12/18 04:26:09;;;;;;;9.10;6.70;;;;;;;;;;5067232;28;20613;-81
2023/12/18 04:29:15;;;;;;;9.50;6.73;;;;;;;;;;5090569;28;20879;-83
2023/12/18 04:32:19;;;;;;;8.07;6.17;;;;;;;;;;5089924;28;20533;-82
2023/12/18 04:35:23;;;;;;;8.87;6.93;;;;;;;;;;5078238;28;20652;-82
2023/12/18 04:38:27;;;;;;;10.00;6.97;;;;;;;;;;5078412;28;20537;-83
2023/12/18 04:41:32;;;;;;;8.27;6.53;;;;;;;;;;5103241;28;20549;-82
2023/12/18 04:44:36;;;;;;;10.57;7.37;;;;;;;;;;5090176;28;20541;-82
2023/12/18 04:47:40;;;;;;;14.27;7.83;;;;;;;;;;5102705;28;20529;-82
2023/12/18 04:50:44;;;;;;;10.87;7.70;;;;;;;;;;5078198;28;20541;-82
2023/12/18 04:53:48;;;;;;;9.83;6.83;;;;;;;;;;5102059;28;20871;-82
2023/12/18 04:56:53;;;;;;;11.17;7.20;;;;;;;;;;5102143;28;20624;-83
2023/12/18 04:59:57;;;;;;;11.50;7.87;;;;;;;;;;5078746;28;20537;-83
2023/12/18 05:03:01;;;;;;;10.33;7.10;;;;;;;;;;5102059;28;20537;-83
2023/12/18 05:06:21;;;;;;;10.17;7.77;;;;;;;;;;5089239;28;20631;-82
2023/12/18 05:09:25;;;;;;;9.63;6.83;;;;;;;;;;5102072;28;20859;-82
2023/12/18 05:12:29;;;;;;;10.27;7.23;;;;;;;;;;5078196;28;20534;-83
2023/12/18 05:15:33;;;;;;;9.97;6.90;;;;;;;;;;5089680;28;20656;-82
2023/12/18 05:18:37;;;;;;;9.33;7.17;;;;;;;;;;5089603;28;20537;-82
2023/12/18 05:21:41;;;;;;;12.40;8.47;;;;;;;;;;5089392;28;20537;-82
2023/12/18 05:24:46;;;;;;;13.10;9.93;;;;;;;;;;5077660;28;20557;-81
2023/12/18 05:27:50;;;;;;;18.93;12.00;;;;;;;;;;5102576;28;20529;-81
2023/12/18 05:30:55;;;;;;;14.47;9.13;;;;;;;;;;5089935;28;20561;-81
2023/12/18 05:33:59;;;;;;;9.90;6.97;;;;;;;;;;5078035;28;20545;-82
2023/12/18 05:37:03;;;;;;;10.77;7.07;;;;;;;;;;5101715;28;20609;-82
2023/12/18 05:40:08;;;;;;;11.40;6.97;;;;;;;;;;5088865;28;20533;-82
2023/12/18 05:43:13;;;;;;;12.27;7.13;;;;;;;;;;5089906;28;20537;-81
2023/12/18 05:46:17;;;;;;;9.93;7.17;;;;;;;;;;5065009;28;20621;-83
2023/12/18 05:49:21;;;;;;;10.07;6.77;;;;;;;;;;5089118;28;20537;-82
2023/12/18 05:52:26;;;;;;;10.77;6.93;;;;;;;;;;5088988;28;20537;-82
2023/12/18 05:55:30;;;;;;;9.53;6.73;;;;;;;;;;5088929;28;20661;-82
2023/12/18 05:58:34;;;;;;;11.00;6.77;;;;;;;;;;5077662;28;20541;-81
2023/12/18 06:01:39;;;;;;;9.07;6.07;;;;;;;;;;5089417;28;20542;-82
2023/12/18 06:04:43;;;;;;;8.57;6.10;;;;;;;;;;5089063;28;20533;-81
2023/12/18 06:07:47;;;;;;;9.37;6.67;;;;;;;;;;5064684;28;20537;-81
2023/12/18 06:10:52;;;;;;;10.87;6.27;;;;;;;;;;5076180;28;20882;-81
2023/12/18 06:13:57;;;;;;;9.07;5.97;;;;;;;;;;5076155;28;20541;-82
2023/12/18 06:17:02;;;;;;;8.27;6.33;;;;;;;;;;5087317;28;20601;-81
2023/12/18 06:20:06;;;;;;;9.17;6.33;;;;;;;;;;5086992;28;20538;-81
2023/12/18 06:23:11;;;;;;;9.80;6.50;;;;;;;;;;5074951;28;20879;-82
2023/12/18 06:26:15;;;;;;;7.17;6.07;;;;;;;;;;5097846;28;20612;-82
2023/12/18 06:29:20;;;;;;;9.43;6.53;;;;;;;;;;5098305;28;20534;-81
2023/12/18 06:32:24;;;;;;;10.37;7.53;;;;;;;;;;5098483;28;20541;-85
2023/12/18 06:35:28;;;;;;;10.17;7.27;;;;;;;;;;5085431;28;20648;-81
2023/12/18 06:38:32;;;;;;;9.17;6.20;;;;;;;;;;5086212;28;20549;-83
2023/12/18 06:41:37;;;;;;;8.90;6.33;;;;;;;;;;5087284;28;20533;-84
2023/12/18 06:44:41;;;;;;;10.27;6.60;;;;;;;;;;5100195;28;20882;-82
2023/12/18 06:47:45;;;;;;;9.17;6.17;;;;;;;;;;5089053;28;20537;-83
2023/12/18 06:50:49;;;;;;;9.53;6.60;;;;;;;;;;5063524;28;20879;-82
2023/12/18 06:53:53;;;;;;;9.57;6.33;;;;;;;;;;5063890;28;21097;-82
2023/12/18 06:56:58;;;;;;;9.00;6.30;;;;;;;;;;5087085;28;20612;-81
2023/12/18 07:00:02;;;;;;;8.70;6.60;;;;;;;;;;5091560;28;21057;-82
2023/12/18 07:03:08;;;;;;;8.50;6.30;;;;;;;;;;5076199;28;20541;-81
2023/12/18 07:06:12;;;;;;;7.77;6.17;;;;;;;;;;5037535;28;1086057;-83
2023/12/18 07:09:16;;;;;;;8.03;6.27;;;;;;;;;;5100830;28;20186;-82
2023/12/18 07:12:21;;;;;;;8.83;6.20;;;;;;;;;;5075982;28;21069;-86
2023/12/18 07:15:25;;;;;;;9.00;7.30;;;;;;;;;;5076532;28;20652;-86
2023/12/18 07:18:29;;;;;;;13.53;8.37;;;;;;;;;;5097552;28;20537;-86
2023/12/18 07:21:33;;;;;;;11.27;8.07;;;;;;;;;;5085404;28;20533;-86
2023/12/18 07:24:37;;;;;;;12.47;7.97;;;;;;;;;;5074912;28;20859;-86
2023/12/18 07:27:44;;;;;;;10.60;8.13;;;;;;;;;;5073117;28;21129;-86
2023/12/18 07:30:48;;;;;;;16.23;9.60;;;;;;;;;;5096798;28;20558;-87
2023/12/18 07:33:52;;;;;;;54.70;28.33;;;;;;;;;;5061921;28;20553;-87
2023/12/18 07:36:57;;;;;;;55.13;27.70;;;;;;;;;;5064542;28;20652;-87
2023/12/18 07:40:02;;;;;;;76.10;36.37;;;;;;;;;;5076063;28;20556;-87
2023/12/18 07:43:06;;;;;;;54.07;27.83;;;;;;;;;;5087294;28;20572;-87
2023/12/18 07:46:18;;;;;;;36.20;19.83;;;;;;;;;;5088945;28;20616;-85
2023/12/18 07:49:22;;;;;;;33.90;19.33;;;;;;;;;;5089198;28;20909;-87
2023/12/18 07:52:27;;;;;;;28.17;16.63;;;;;;;;;;5076208;28;20560;-88
2023/12/18 07:55:31;;;;;;;22.83;14.03;;;;;;;;;;5088325;28;20663;-87
2023/12/18 07:58:36;;;;;;;23.07;14.33;;;;;;;;;;5064337;28;20897;-87
2023/12/18 08:01:40;;;;;;;32.13;16.23;;;;;;;;;;5076294;28;20544;-88
2023/12/18 08:04:44;;;;;;;26.43;15.00;;;;;;;;;;5087106;28;20555;-87
2023/12/18 08:07:48;;;;;;;23.90;14.73;;;;;;;;;;5089617;28;20906;-87
2023/12/18 08:10:53;;;;;;;25.83;15.03;;;;;;;;;;5090506;28;20540;-87
2023/12/18 08:13:58;;;;;;;23.30;13.57;;;;;;;;;;5079710;28;20555;-86
2023/12/18 08:17:03;;;;;;;21.43;12.97;;;;;;;;;;5090106;28;20671;-86
2023/12/18 08:20:07;;;;;;;14.80;10.50;;;;;;;;;;5078558;28;20553;-86
2023/12/18 08:23:15;;;;;;;19.40;11.87;;;;;;;;;;5080112;28;20541;-87
2023/12/18 08:26:19;;;;;;;26.87;15.47;;;;;;;;;;5080122;28;20612;-87
2023/12/18 08:29:25;;;;;;;28.47;15.37;;;;;;;;;;5102295;28;20627;-87
2023/12/18 08:32:29;;;;;;;15.60;10.57;;;;;;;;;;5091096;28;20541;-86
2023/12/18 08:35:34;;;;;;;15.13;9.23;;;;;;;;;;5091176;28;20652;-86
2023/12/18 08:38:39;;;;;;;11.43;8.07;;;;;;;;;;5089966;28;20537;-86
2023/12/18 08:41:46;;;;;;;15.17;9.90;;;;;;;;;;5089769;28;20545;-87
2023/12/18 08:44:50;;;;;;;18.27;11.83;;;;;;;;;;5088277;28;20556;-87
2023/12/18 08:47:57;;;;;;;17.33;12.03;;;;;;;;;;5088396;28;20529;-86
2023/12/18 08:51:02;;;;;;;19.17;11.30;;;;;;;;;;5089102;28;20541;-86
2023/12/18 08:54:06;;;;;;;18.40;11.17;;;;;;;;;;5077818;28;20549;-87
2023/12/18 08:57:10;;;;;;;17.97;10.50;;;;;;;;;;5075370;28;20640;-87
2023/12/18 09:00:18;;;;;;;12.67;9.53;;;;;;;;;;5077449;28;20541;-87
2023/12/18 09:03:22;;;;;;;19.83;11.20;;;;;;;;;;5090722;28;20545;-86
2023/12/18 09:06:26;;;;;;;13.87;9.57;;;;;;;;;;5079531;28;20639;-86
2023/12/18 09:09:32;;;;;;;14.73;8.57;;;;;;;;;;5068332;28;20561;-86
2023/12/18 09:12:37;;;;;;;14.90;9.07;;;;;;;;;;5091361;28;20533;-85
2023/12/18 09:15:41;;;;;;;13.00;9.13;;;;;;;;;;5078602;28;20648;-86
2023/12/18 09:18:45;;;;;;;12.10;9.33;;;;;;;;;;5090121;28;20537;-86
2023/12/18 09:21:50;;;;;;;13.60;9.13;;;;;;;;;;5078144;28;20542;-86
2023/12/18 09:24:54;;;;;;;12.20;9.03;;;;;;;;;;5090050;28;20541;-86
2023/12/18 09:27:58;;;;;;;11.00;8.33;;;;;;;;;;5102642;28;20533;-86
2023/12/18 09:31:05;;;;;;;12.60;7.77;;;;;;;;;;5088874;28;20549;-86
2023/12/18 09:34:09;;;;;;;8.83;7.43;;;;;;;;;;5089609;28;21085;-87
2023/12/18 09:37:14;;;;;;;10.80;7.60;;;;;;;;;;5089298;28;20644;-87
2023/12/18 09:40:19;;;;;;;12.83;7.93;;;;;;;;;;5077112;28;20545;-87
2023/12/18 09:43:23;;;;;;;10.87;7.10;;;;;;;;;;5076493;28;20553;-86
2023/12/18 09:46:29;;;;;;;11.30;7.93;;;;;;;;;;5087890;28;20617;-86
2023/12/18 09:49:34;;;;;;;9.00;7.07;;;;;;;;;;5075594;28;20529;-87
2023/12/18 09:52:45;;;;;;;9.07;7.13;;;;;;;;;;5075834;28;20533;-86
2023/12/18 09:55:51;;;;;;;9.63;6.63;;;;;;;;;;5086200;28;20641;-86
2023/12/18 09:58:58;;;;;;;9.10;6.63;;;;;;;;;;5086187;28;20908;-87
2023/12/18 10:02:03;;;;;;;9.20;6.47;;;;;;;;;;5075474;28;20537;-86
2023/12/18 10:05:07;;;;;;;9.37;6.80;;;;;;;;;;5074992;28;20194;-87
2023/12/18 10:08:12;;;;;;;8.73;6.17;;;;;;;;;;5064927;28;20171;-87
2023/12/18 10:11:26;;;;;;;9.03;6.20;;;;;;;;;;5075159;28;20537;-87
2023/12/18 10:14:30;;;;;;;7.90;5.73;;;;;;;;;;5073744;28;20529;-87
2023/12/18 10:17:35;;;;;;;21.90;13.07;;;;;;;;;;5098777;28;20212;-87
2023/12/18 10:20:39;;;;;;;18.67;14.20;;;;;;;;;;5085543;28;20182;-86
2023/12/18 10:23:43;;;;;;;9.10;6.93;;;;;;;;;;5086449;28;20179;-86
2023/12/18 10:26:50;;;;;;;13.63;9.40;;;;;;;;;;5086572;28;20207;-87
2023/12/18 10:29:54;;;;;;;8.63;6.93;;;;;;;;;;5086699;28;20179;-87
2023/12/18 10:33:05;;;;;;;8.97;7.03;;;;;;;;;;5086421;28;20179;-87
2023/12/18 10:36:09;;;;;;;16.00;12.60;;;;;;;;;;5086312;28;20219;-87
2023/12/18 10:39:15;;;;;;;10.53;8.20;;;;;;;;;;5086461;28;20179;-86
2023/12/18 10:42:28;;;;;;;10.83;7.93;;;;;;;;;;5074492;28;20179;-87
2023/12/18 10:45:34;;;;;;;11.60;8.83;;;;;;;;;;5074189;28;20206;-86
2023/12/18 10:48:40;;;;;;;28.03;21.23;;;;;;;;;;5085294;28;20175;-87
2023/12/18 10:51:45;;;;;;;21.10;16.63;;;;;;;;;;5074079;28;20171;-87
2023/12/18 10:54:50;;;;;;;15.47;11.73;;;;;;;;;;5086267;28;20179;-86
2023/12/18 10:58:00;;;;;;;10.20;7.00;;;;;;;;;;5084696;28;20206;-87
2023/12/18 11:01:05;;;;;;;10.90;7.73;;;;;;;;;;5085048;28;20179;-87
2023/12/18 11:04:12;;;;;;;8.43;6.10;;;;;;;;;;5085057;28;20604;-87
2023/12/18 11:07:18;;;;;;;8.90;6.97;;;;;;;;;;5072558;28;20223;-87
2023/12/18 11:10:24;;;;;;;7.03;6.23;;;;;;;;;;5073155;28;20186;-87
2023/12/18 11:13:35;;;;;;;8.70;6.70;;;;;;;;;;5073435;28;20174;-87
2023/12/18 11:16:56;;;;;;;7.90;6.10;;;;;;;;;;5072480;28;20218;-87
2023/12/18 11:20:17;;;;;;;8.83;6.23;;;;;;;;;;5084552;28;20170;-87
2023/12/18 11:23:25;;;;;;;8.60;5.83;;;;;;;;;;5073390;28;20183;-86
2023/12/18 11:26:30;;;;;;;7.07;5.77;;;;;;;;;;5084791;28;20206;-87
2023/12/18 11:29:37;;;;;;;8.07;6.07;;;;;;;;;;5085872;28;20175;-87
2023/12/18 11:32:45;;;;;;;9.50;5.83;;;;;;;;;;5098840;28;20179;-86
2023/12/18 11:35:49;;;;;;;6.90;5.50;;;;;;;;;;5072736;28;20218;-86
2023/12/18 11:38:55;;;;;;;11.03;8.60;;;;;;;;;;5061217;28;20171;-87
2023/12/18 11:42:00;;;;;;;9.30;7.17;;;;;;;;;;5096631;28;20179;-87
2023/12/18 11:45:04;;;;;;;9.33;7.20;;;;;;;;;;5084436;28;20183;-86
2023/12/18 11:48:17;;;;;;;8.27;6.30;;;;;;;;;;5096548;28;20179;-87
2023/12/18 11:51:23;;;;;;;6.30;5.57;;;;;;;;;;5072932;28;20179;-86
2023/12/18 11:54:27;;;;;;;8.00;6.10;;;;;;;;;;5072559;28;20178;-87
2023/12/18 11:57:40;;;;;;;6.80;5.43;;;;;;;;;;5073026;28;20567;-87
2023/12/18 12:00:44;;;;;;;8.23;5.63;;;;;;;;;;5073517;28;20620;-86
2023/12/18 12:03:50;;;;;;;7.33;5.97;;;;;;;;;;5084812;28;20635;-86
2023/12/18 12:06:55;;;;;;;7.13;6.03;;;;;;;;;;5072644;28;20218;-87
2023/12/18 12:09:59;;;;;;;10.97;8.47;;;;;;;;;;5072119;28;20183;-87
2023/12/18 12:13:04;;;;;;;9.63;7.07;;;;;;;;;;5083469;28;20627;-87
2023/12/18 12:16:08;;;;;;;14.03;9.10;;;;;;;;;;5083423;28;20218;-87
2023/12/18 12:19:13;;;;;;;10.67;8.13;;;;;;;;;;5071895;28;20179;-87
2023/12/18 12:22:20;;;;;;;12.03;8.77;;;;;;;;;;5073098;28;20179;-87
2023/12/18 12:25:24;;;;;;;10.60;8.20;;;;;;;;;;5073510;28;20671;-87
2023/12/18 12:28:30;;;;;;;10.23;7.90;;;;;;;;;;5077092;28;20187;-87
2023/12/18 12:31:35;;;;;;;10.17;7.40;;;;;;;;;;5089035;28;20517;-86
2023/12/18 12:34:39;;;;;;;10.23;7.43;;;;;;;;;;5081004;28;20190;-86
2023/12/18 12:37:47;;;;;;;12.30;7.90;;;;;;;;;;5092553;28;20207;-86
2023/12/18 12:40:51;;;;;;;13.00;7.93;;;;;;;;;;5092682;28;20183;-86
2023/12/18 12:43:58;;;;;;;9.87;7.77;;;;;;;;;;5080271;28;20179;-87
2023/12/18 12:47:04;;;;;;;10.87;8.67;;;;;;;;;;5103959;28;20207;-86
2023/12/18 12:50:09;;;;;;;13.47;8.73;;;;;;;;;;5091949;28;20175;-86
2023/12/18 12:53:14;;;;;;;12.27;9.80;;;;;;;;;;5093558;28;20538;-86
2023/12/18 12:56:18;;;;;;;12.37;9.40;;;;;;;;;;5109215;28;20202;-85
2023/12/18 12:59:22;;;;;;;18.03;9.27;;;;;;;;;;5100148;28;20171;-86
2023/12/18 13:02:27;;;;;;;14.07;9.37;;;;;;;;;;5093082;28;20175;-86
2023/12/18 13:05:32;;;;;;;15.90;9.93;;;;;;;;;;5093818;28;20230;-87
2023/12/18 13:08:36;;;;;;;12.37;10.07;;;;;;;;;;5094925;28;20166;-86
2023/12/18 13:11:40;;;;;;;13.93;9.77;;;;;;;;;;5098980;28;20179;-83
2023/12/18 13:14:45;;;;;;;14.17;10.37;;;;;;;;;;5078399;28;20178;-83
2023/12/18 13:17:50;;;;;;;16.13;11.10;;;;;;;;;;5078149;28;20207;-83
2023/12/18 13:20:54;;;;;;;17.07;10.97;;;;;;;;;;5088968;28;20179;-83
2023/12/18 13:23:58;;;;;;;14.33;10.30;;;;;;;;;;5077817;28;20171;-84
2023/12/18 13:27:03;;;;;;;12.53;10.30;;;;;;;;;;5100965;28;20214;-83
2023/12/18 13:30:08;;;;;;;12.47;9.57;;;;;;;;;;5088517;28;20183;-84
2023/12/18 13:33:12;;;;;;;14.37;11.33;;;;;;;;;;5089216;28;20175;-84
2023/12/18 13:36:16;;;;;;;15.67;11.17;;;;;;;;;;5076662;28;20222;-83
2023/12/18 13:39:21;;;;;;;16.70;11.93;;;;;;;;;;5100933;28;20179;-83
2023/12/18 13:42:26;;;;;;;15.27;10.93;;;;;;;;;;5088945;28;20647;-84
2023/12/18 13:45:32;;;;;;;13.70;11.20;;;;;;;;;;5087732;28;20210;-83
2023/12/18 13:48:37;;;;;;;13.83;11.07;;;;;;;;;;5099812;28;20187;-84
2023/12/18 13:51:42;;;;;;;16.13;12.50;;;;;;;;;;5086866;28;20179;-84
2023/12/18 13:54:47;;;;;;;16.40;11.63;;;;;;;;;;5085082;28;20183;-84
2023/12/18 13:57:52;;;;;;;15.77;11.73;;;;;;;;;;5087264;28;20210;-83
2023/12/18 14:00:56;;;;;;;15.17;11.30;;;;;;;;;;5085737;28;20175;-84
2023/12/18 14:04:01;;;;;;;17.13;12.27;;;;;;;;;;5072469;28;20179;-82
2023/12/18 14:07:07;;;;;;;16.30;12.67;;;;;;;;;;5108966;28;20698;-83
2023/12/18 14:10:11;;;;;;;19.67;12.20;;;;;;;;;;5083942;28;20179;-83
2023/12/18 14:13:16;;;;;;;19.43;13.37;;;;;;;;;;5106814;28;20183;-82
2023/12/18 14:16:26;;;;;;;17.93;13.17;;;;;;;;;;5095447;28;20218;-83
2023/12/18 14:19:31;;;;;;;17.83;12.37;;;;;;;;;;5106862;28;20175;-83
2023/12/18 14:22:35;;;;;;;18.27;13.30;;;;;;;;;;5086938;28;20183;-83
2023/12/18 14:25:39;;;;;;;16.73;13.00;;;;;;;;;;5094849;28;20215;-83
2023/12/18 14:28:44;;;;;;;18.77;13.13;;;;;;;;;;5082204;28;20179;-83
2023/12/18 14:31:48;;;;;;;19.33;13.57;;;;;;;;;;5071592;28;20183;-83
2023/12/18 14:34:52;;;;;;;18.83;13.13;;;;;;;;;;5083399;28;20175;-82
2023/12/18 14:37:56;;;;;;;18.73;13.47;;;;;;;;;;5082138;28;20675;-82
2023/12/18 14:41:01;;;;;;;20.00;14.87;;;;;;;;;;5083111;28;20182;-84
2023/12/18 14:44:05;;;;;;;20.83;14.37;;;;;;;;;;5094053;28;20179;-83
2023/12/18 14:47:11;;;;;;;22.43;14.80;;;;;;;;;;5083720;28;20210;-85
2023/12/18 14:50:15;;;;;;;20.43;13.70;;;;;;;;;;5070884;28;20179;-83
2023/12/18 14:53:20;;;;;;;19.73;13.77;;;;;;;;;;5093276;28;20194;-84
2023/12/18 14:56:24;;;;;;;19.37;13.77;;;;;;;;;;5080668;28;20215;-85
2023/12/18 14:59:29;;;;;;;18.27;13.07;;;;;;;;;;5103535;28;20167;-83
2023/12/18 15:02:33;;;;;;;21.30;15.17;;;;;;;;;;5094023;28;20208;-84
2023/12/18 15:05:37;;;;;;;17.53;13.27;;;;;;;;;;5083347;28;20222;-84
2023/12/18 15:08:43;;;;;;;20.67;14.20;;;;;;;;;;5072747;28;20175;-84
2023/12/18 15:11:50;;;;;;;17.17;13.10;;;;;;;;;;5073321;28;20537;-84
2023/12/18 15:14:54;;;;;;;17.37;13.17;;;;;;;;;;5082817;28;20179;-84
2023/12/18 15:17:59;;;;;;;18.40;13.83;;;;;;;;;;5107179;28;20597;-86
2023/12/18 15:21:04;;;;;;;20.03;13.83;;;;;;;;;;5072243;28;20541;-84
2023/12/18 15:24:08;;;;;;;22.20;14.40;;;;;;;;;;5082735;28;21113;-84
2023/12/18 15:27:12;;;;;;;22.33;15.03;;;;;;;;;;5083564;28;20690;-85
2023/12/18 15:30:16;;;;;;;19.80;13.87;;;;;;;;;;5083339;28;20553;-84
2023/12/18 15:33:21;;;;;;;17.07;12.77;;;;;;;;;;5083650;28;20537;-83
2023/12/18 15:36:27;;;;;;;20.13;13.80;;;;;;;;;;5101156;28;20624;-86
2023/12/18 15:39:31;;;;;;;18.77;13.50;;;;;;;;;;5078288;28;20883;-84
2023/12/18 15:42:37;;;;;;;18.33;13.67;;;;;;;;;;5088680;28;20891;-84
2023/12/18 15:45:40;;;;;;;22.77;14.70;;;;;;;;;;5074576;28;20974;-81
2023/12/18 15:48:44;;;;;;;30.53;15.70;;;;;;;;;;5086701;28;20533;-80
2023/12/18 15:51:49;;;;;;;21.40;14.77;;;;;;;;;;5085663;28;20541;-79
2023/12/18 15:54:53;;;;;;;22.83;14.70;;;;;;;;;;5085930;28;20537;-86
2023/12/18 15:57:57;;;;;;;22.33;14.30;;;;;;;;;;5076506;28;20585;-85
2023/12/18 16:01:01;;;;;;;22.23;15.10;;;;;;;;;;5076682;28;20534;-85
2023/12/18 16:04:06;;;;;;;21.73;15.20;;;;;;;;;;5087314;28;20542;-86
2023/12/18 16:07:10;;;;;;;20.57;14.37;;;;;;;;;;5101454;28;20656;-86
2023/12/18 16:10:14;;;;;;;23.43;15.83;;;;;;;;;;5091522;28;20530;-87
2023/12/18 16:13:19;;;;;;;24.47;14.53;;;;;;;;;;5079789;28;20533;-86
2023/12/18 16:16:23;;;;;;;31.87;18.00;;;;;;;;;;5103605;28;20624;-85
2023/12/18 16:19:27;;;;;;;34.43;20.70;;;;;;;;;;5080048;28;20611;-85
2023/12/18 16:22:31;;;;;;;28.93;14.73;;;;;;;;;;5090608;28;20541;-82
2023/12/18 16:25:36;;;;;;;38.63;23.13;;;;;;;;;;5104009;28;20616;-85
2023/12/18 16:28:40;;;;;;;50.73;28.00;;;;;;;;;;5091711;28;20526;-84
2023/12/18 16:31:47;;;;;;;50.37;26.87;;;;;;;;;;5080601;28;20533;-85
2023/12/18 16:34:51;;;;;;;32.70;20.93;;;;;;;;;;5092202;28;20537;-84
2023/12/18 16:37:57;;;;;;;30.80;20.43;;;;;;;;;;5078969;28;20605;-85
2023/12/18 16:41:02;;;;;;;25.70;18.13;;;;;;;;;;5068228;28;20556;-86
2023/12/18 16:44:06;;;;;;;24.23;16.33;;;;;;;;;;5101304;28;20553;-83
2023/12/18 16:47:12;;;;;;;25.13;17.07;;;;;;;;;;5089808;28;20624;-85
2023/12/18 16:50:16;;;;;;;28.60;18.43;;;;;;;;;;5089913;28;20537;-84
2023/12/18 16:53:20;;;;;;;26.83;17.43;;;;;;;;;;5105674;28;20534;-84
2023/12/18 16:56:24;;;;;;;23.93;16.10;;;;;;;;;;5077363;28;20612;-84
2023/12/18 16:59:29;;;;;;;26.73;16.80;;;;;;;;;;5090542;28;20597;-84
2023/12/18 17:02:38;;;;;;;26.93;17.87;;;;;;;;;;5087970;28;20537;-90
2023/12/18 17:05:43;;;;;;;27.10;17.60;;;;;;;;;;5089542;28;20628;-85
2023/12/18 17:09:33;;;;;;;25.97;17.70;;;;;;;;;;5093325;28;20537;-86
2023/12/18 17:12:42;;;;;;;23.50;16.53;;;;;;;;;;5101314;28;21172;-85
2023/12/18 17:15:47;;;;;;;24.57;16.37;;;;;;;;;;5066016;28;20624;-86
2023/12/18 17:18:51;;;;;;;22.23;15.63;;;;;;;;;;5076788;28;20593;-87
2023/12/18 17:21:55;;;;;;;26.87;18.20;;;;;;;;;;5088877;28;20549;-86
2023/12/18 17:24:59;;;;;;;25.73;17.53;;;;;;;;;;5067022;28;20548;-86
2023/12/18 17:28:07;;;;;;;24.63;17.10;;;;;;;;;;5089940;28;20541;-86
2023/12/18 17:31:12;;;;;;;27.57;18.90;;;;;;;;;;5079298;28;20541;-86
2023/12/18 17:34:16;;;;;;;24.57;16.90;;;;;;;;;;5091362;28;20544;-86
2023/12/18 17:37:20;;;;;;;24.00;15.77;;;;;;;;;;5066325;28;20620;-86
2023/12/18 17:40:25;;;;;;;28.70;16.97;;;;;;;;;;5076808;28;20541;-87
2023/12/18 17:43:32;;;;;;;25.63;17.20;;;;;;;;;;5064220;28;20564;-89
2023/12/18 17:46:38;;;;;;;23.90;16.37;;;;;;;;;;5064014;28;20623;-86
2023/12/18 17:50:47;;;;;;;29.83;19.20;;;;;;;;;;5075569;28;20544;-86
2023/12/18 17:53:52;;;;;;;27.37;18.07;;;;;;;;;;5006467;28;20552;-87
2023/12/18 17:56:59;;;;;;;30.40;19.30;;;;;;;;;;5017011;28;21021;-86
2023/12/18 18:00:04;;;;;;;33.67;20.97;;;;;;;;;;5074377;28;20596;-88
2023/12/18 18:03:12;;;;;;;31.43;21.13;;;;;;;;;;5075620;28;20545;-87
2023/12/18 18:06:19;;;;;;;29.63;20.17;;;;;;;;;;5063226;28;20648;-88
2023/12/18 18:09:24;;;;;;;28.87;18.53;;;;;;;;;;5076908;28;20540;-87
2023/12/18 18:12:28;;;;;;;28.50;19.67;;;;;;;;;;5064998;28;20544;-86